Aeroporto :







RITROVATECI SU...

 
LOGIN :

Iscrizione | Disclaimer

   EN    FR    IT 

 









Sommario :    VFR   VFR Marginale   IFR   IFR Intensivo   IFR Molto Intensivo
Visibilità : 
Base nubi : 
>= 8 km
>= 3000ft
5 / 8 km
1000 / 3000 ft
1500m / 5 km
500 / 1000 ft
800 / 1500m
200 / 500 ft
< 800m
< 200 ft
Simboli :   Temporali  Nebbia  Neve Forte  Precipitazioni Forti  Vento > 20 kt






- Altitudine del aeroporto : 348 ft


KFIT - Fitchburg Municipal

ULTIMO METAR :
  • 131652Z AUTO 31012G23KT 10SM CLR M03/M17 A3022 RMK AO2 SLP240 T10331172

METARs OBSOLETI :
  • 131552Z AUTO 31016G25KT 10SM CLR M04/M17 A3022 RMK AO2 PK WND 32028/1541 SLP239 T10441172
  • 131452Z AUTO 31011G22KT 10SM CLR M05/M18 A3021 RMK AO2 PK WND 30026/1428 SLP237 T10501178 51025

TAF N/A



MetMap, La meteo Aeronautica in un colpo d'occhio ! - Copyright ORBIFLY Dicembre 2007 - Disclaimer

ORBIFLY MET'MAP TEAM :

Programmazione e sviluppo : Alexandra Zaïnal
Concezione e sviluppo : Baudouin d'Aumeries
Co-Programmazione e sviluppo : Marc-Olivier Méhu
Supporto tecnico e logistico : Manuel Goepfert
Aiuto per la traduzione : Arnaldo La Scala

Contatto : metmap@orbifly.com




FONTI E CREDITI :

   NOAA